sensor_id;sensor_type;location;lat;lon;timestamp;temperature;humidity
21207;DHT22;10761;48.532;8.026;2024-02-21T00:00:45;7.20;1.00
21207;DHT22;10761;48.532;8.026;2024-02-21T00:03:11;7.10;1.00
21207;DHT22;10761;48.532;8.026;2024-02-21T00:05:36;7.20;1.00
21207;DHT22;10761;48.532;8.026;2024-02-21T00:08:02;7.20;1.00
21207;DHT22;10761;48.532;8.026;2024-02-21T00:10:28;7.20;1.00
21207;DHT22;10761;48.532;8.026;2024-02-21T00:12:54;7.20;1.00
21207;DHT22;10761;48.532;8.026;2024-02-21T00:15:20;7.20;1.00
21207;DHT22;10761;48.532;8.026;2024-02-21T00:17:46;7.20;1.00
21207;DHT22;10761;48.532;8.026;2024-02-21T00:20:12;7.20;1.00
21207;DHT22;10761;48.532;8.026;2024-02-21T00:22:38;7.20;1.00
21207;DHT22;10761;48.532;8.026;2024-02-21T00:25:03;7.30;99.90
21207;DHT22;10761;48.532;8.026;2024-02-21T00:27:29;7.30;1.00
21207;DHT22;10761;48.532;8.026;2024-02-21T00:29:55;7.40;99.90
21207;DHT22;10761;48.532;8.026;2024-02-21T00:32:20;7.40;99.90
21207;DHT22;10761;48.532;8.026;2024-02-21T00:34:46;7.40;99.90
21207;DHT22;10761;48.532;8.026;2024-02-21T00:37:11;7.50;99.90
21207;DHT22;10761;48.532;8.026;2024-02-21T00:39:37;7.50;1.00
21207;DHT22;10761;48.532;8.026;2024-02-21T00:42:03;7.50;74.90
21207;DHT22;10761;48.532;8.026;2024-02-21T00:44:28;7.50;1.00
21207;DHT22;10761;48.532;8.026;2024-02-21T00:46:54;7.60;1.00
21207;DHT22;10761;48.532;8.026;2024-02-21T00:49:20;7.60;78.00
21207;DHT22;10761;48.532;8.026;2024-02-21T00:51:47;7.70;1.00
21207;DHT22;10761;48.532;8.026;2024-02-21T00:54:12;7.70;1.00
21207;DHT22;10761;48.532;8.026;2024-02-21T00:56:38;7.70;1.00
21207;DHT22;10761;48.532;8.026;2024-02-21T00:59:03;7.70;1.00
21207;DHT22;10761;48.532;8.026;2024-02-21T01:01:29;7.70;1.00
21207;DHT22;10761;48.532;8.026;2024-02-21T01:03:55;7.70;1.00
21207;DHT22;10761;48.532;8.026;2024-02-21T01:06:20;7.70;99.90
21207;DHT22;10761;48.532;8.026;2024-02-21T01:08:47;7.60;99.90
21207;DHT22;10761;48.532;8.026;2024-02-21T01:11:13;7.60;99.90
21207;DHT22;10761;48.532;8.026;2024-02-21T01:13:39;7.60;99.90
21207;DHT22;10761;48.532;8.026;2024-02-21T01:16:05;7.60;1.00
21207;DHT22;10761;48.532;8.026;2024-02-21T01:18:33;7.60;24.60
21207;DHT22;10761;48.532;8.026;2024-02-21T01:20:58;7.60;99.90
21207;DHT22;10761;48.532;8.026;2024-02-21T01:23:24;7.70;73.60
21207;DHT22;10761;48.532;8.026;2024-02-21T01:25:50;7.70;1.00
21207;DHT22;10761;48.532;8.026;2024-02-21T01:28:16;7.70;1.00
21207;DHT22;10761;48.532;8.026;2024-02-21T01:30:42;7.70;99.90
21207;DHT22;10761;48.532;8.026;2024-02-21T01:33:07;7.70;99.90
21207;DHT22;10761;48.532;8.026;2024-02-21T01:35:34;7.70;1.00
21207;DHT22;10761;48.532;8.026;2024-02-21T01:37:59;7.70;60.80
21207;DHT22;10761;48.532;8.026;2024-02-21T01:40:25;7.60;99.90
21207;DHT22;10761;48.532;8.026;2024-02-21T01:42:51;7.60;1.00
21207;DHT22;10761;48.532;8.026;2024-02-21T01:45:19;7.60;99.90
21207;DHT22;10761;48.532;8.026;2024-02-21T01:47:44;7.60;1.00
21207;DHT22;10761;48.532;8.026;2024-02-21T01:50:12;7.60;1.00
21207;DHT22;10761;48.532;8.026;2024-02-21T01:52:39;7.60;1.00
21207;DHT22;10761;48.532;8.026;2024-02-21T01:55:06;7.70;1.00
21207;DHT22;10761;48.532;8.026;2024-02-21T01:57:32;7.70;1.00
21207;DHT22;10761;48.532;8.026;2024-02-21T01:59:57;7.60;1.00
21207;DHT22;10761;48.532;8.026;2024-02-21T02:02:24;7.60;99.90
21207;DHT22;10761;48.532;8.026;2024-02-21T02:04:50;7.50;99.90
21207;DHT22;10761;48.532;8.026;2024-02-21T02:07:17;7.30;1.00
21207;DHT22;10761;48.532;8.026;2024-02-21T02:09:43;7.20;1.00
21207;DHT22;10761;48.532;8.026;2024-02-21T02:12:08;7.10;1.00
21207;DHT22;10761;48.532;8.026;2024-02-21T02:14:34;7.00;1.00
21207;DHT22;10761;48.532;8.026;2024-02-21T02:16:59;6.90;1.00
21207;DHT22;10761;48.532;8.026;2024-02-21T02:19:25;6.90;48.20
21207;DHT22;10761;48.532;8.026;2024-02-21T02:21:54;6.90;73.40
21207;DHT22;10761;48.532;8.026;2024-02-21T02:24:24;6.90;41.20
21207;DHT22;10761;48.532;8.026;2024-02-21T02:26:51;6.90;2.40
21207;DHT22;10761;48.532;8.026;2024-02-21T02:29:16;6.80;1.00
21207;DHT22;10761;48.532;8.026;2024-02-21T02:31:42;6.80;1.00
21207;DHT22;10761;48.532;8.026;2024-02-21T02:34:08;6.80;1.00
21207;DHT22;10761;48.532;8.026;2024-02-21T02:36:35;6.70;1.00
21207;DHT22;10761;48.532;8.026;2024-02-21T02:39:01;6.70;1.00
21207;DHT22;10761;48.532;8.026;2024-02-21T02:41:26;6.70;29.70
21207;DHT22;10761;48.532;8.026;2024-02-21T02:43:52;6.70;94.80
21207;DHT22;10761;48.532;8.026;2024-02-21T02:46:17;6.70;34.40
21207;DHT22;10761;48.532;8.026;2024-02-21T02:48:43;6.60;78.90
21207;DHT22;10761;48.532;8.026;2024-02-21T02:51:10;6.60;99.90
21207;DHT22;10761;48.532;8.026;2024-02-21T02:53:35;6.60;99.90
21207;DHT22;10761;48.532;8.026;2024-02-21T02:56:01;6.50;96.40
21207;DHT22;10761;48.532;8.026;2024-02-21T02:58:27;6.40;99.90
21207;DHT22;10761;48.532;8.026;2024-02-21T03:00:53;6.40;99.90
21207;DHT22;10761;48.532;8.026;2024-02-21T03:03:19;6.30;99.90
21207;DHT22;10761;48.532;8.026;2024-02-21T03:05:45;6.30;99.90
21207;DHT22;10761;48.532;8.026;2024-02-21T03:08:11;6.30;99.90
21207;DHT22;10761;48.532;8.026;2024-02-21T03:10:37;6.50;99.90
21207;DHT22;10761;48.532;8.026;2024-02-21T03:13:02;6.50;99.90
21207;DHT22;10761;48.532;8.026;2024-02-21T03:15:28;6.50;60.60
21207;DHT22;10761;48.532;8.026;2024-02-21T03:17:54;6.50;56.20
21207;DHT22;10761;48.532;8.026;2024-02-21T03:20:20;6.50;15.00
21207;DHT22;10761;48.532;8.026;2024-02-21T03:22:45;6.40;8.30
21207;DHT22;10761;48.532;8.026;2024-02-21T03:25:11;6.40;1.00
21207;DHT22;10761;48.532;8.026;2024-02-21T03:27:38;6.30;24.90
21207;DHT22;10761;48.532;8.026;2024-02-21T03:30:04;6.40;1.10
21207;DHT22;10761;48.532;8.026;2024-02-21T03:32:30;6.30;1.00
21207;DHT22;10761;48.532;8.026;2024-02-21T03:34:56;6.30;1.00
21207;DHT22;10761;48.532;8.026;2024-02-21T03:37:21;6.30;1.00
21207;DHT22;10761;48.532;8.026;2024-02-21T03:39:47;6.40;1.00
21207;DHT22;10761;48.532;8.026;2024-02-21T03:42:12;6.50;1.00
21207;DHT22;10761;48.532;8.026;2024-02-21T03:44:38;6.70;1.00
21207;DHT22;10761;48.532;8.026;2024-02-21T03:47:04;6.70;1.00
21207;DHT22;10761;48.532;8.026;2024-02-21T03:49:30;6.80;1.00
21207;DHT22;10761;48.532;8.026;2024-02-21T03:51:56;6.80;99.90
21207;DHT22;10761;48.532;8.026;2024-02-21T03:54:21;6.70;1.00
21207;DHT22;10761;48.532;8.026;2024-02-21T03:56:47;6.70;1.00
21207;DHT22;10761;48.532;8.026;2024-02-21T03:59:14;6.70;1.00
21207;DHT22;10761;48.532;8.026;2024-02-21T04:01:40;6.70;1.00
21207;DHT22;10761;48.532;8.026;2024-02-21T04:04:05;6.60;1.00
21207;DHT22;10761;48.532;8.026;2024-02-21T04:06:32;6.50;1.00
21207;DHT22;10761;48.532;8.026;2024-02-21T04:08:57;6.50;1.00
21207;DHT22;10761;48.532;8.026;2024-02-21T04:11:23;6.50;1.00
21207;DHT22;10761;48.532;8.026;2024-02-21T04:13:49;6.40;1.00
21207;DHT22;10761;48.532;8.026;2024-02-21T04:16:16;6.40;1.00
21207;DHT22;10761;48.532;8.026;2024-02-21T04:18:42;6.30;1.00
21207;DHT22;10761;48.532;8.026;2024-02-21T04:21:08;6.20;1.00
21207;DHT22;10761;48.532;8.026;2024-02-21T04:23:34;6.20;1.00
21207;DHT22;10761;48.532;8.026;2024-02-21T04:25:59;6.10;1.00
21207;DHT22;10761;48.532;8.026;2024-02-21T04:28:25;6.10;1.00
21207;DHT22;10761;48.532;8.026;2024-02-21T04:30:51;6.10;34.00
21207;DHT22;10761;48.532;8.026;2024-02-21T04:33:16;6.10;2.00
21207;DHT22;10761;48.532;8.026;2024-02-21T04:35:42;6.00;1.00
21207;DHT22;10761;48.532;8.026;2024-02-21T04:38:07;6.00;9.40
21207;DHT22;10761;48.532;8.026;2024-02-21T04:40:33;6.00;71.90
21207;DHT22;10761;48.532;8.026;2024-02-21T04:42:59;5.90;44.10
21207;DHT22;10761;48.532;8.026;2024-02-21T04:45:25;5.90;94.20
21207;DHT22;10761;48.532;8.026;2024-02-21T04:47:50;5.90;6.10
21207;DHT22;10761;48.532;8.026;2024-02-21T04:50:16;5.80;1.00
21207;DHT22;10761;48.532;8.026;2024-02-21T04:52:42;5.70;99.90
21207;DHT22;10761;48.532;8.026;2024-02-21T04:55:08;5.70;99.90
21207;DHT22;10761;48.532;8.026;2024-02-21T04:57:33;5.60;99.90
21207;DHT22;10761;48.532;8.026;2024-02-21T04:59:59;5.60;99.90
21207;DHT22;10761;48.532;8.026;2024-02-21T05:02:24;5.60;99.90
21207;DHT22;10761;48.532;8.026;2024-02-21T05:04:52;5.50;99.90
21207;DHT22;10761;48.532;8.026;2024-02-21T05:07:17;5.40;99.90
21207;DHT22;10761;48.532;8.026;2024-02-21T05:09:45;5.40;99.90
21207;DHT22;10761;48.532;8.026;2024-02-21T05:12:10;5.40;99.90
21207;DHT22;10761;48.532;8.026;2024-02-21T05:14:36;5.40;99.90
21207;DHT22;10761;48.532;8.026;2024-02-21T05:17:03;5.40;99.90
21207;DHT22;10761;48.532;8.026;2024-02-21T05:19:28;5.40;99.90
21207;DHT22;10761;48.532;8.026;2024-02-21T05:21:54;5.40;99.90
21207;DHT22;10761;48.532;8.026;2024-02-21T05:24:19;5.30;99.90
21207;DHT22;10761;48.532;8.026;2024-02-21T05:26:45;5.30;99.90
21207;DHT22;10761;48.532;8.026;2024-02-21T05:29:11;5.20;99.90
21207;DHT22;10761;48.532;8.026;2024-02-21T05:31:55;5.10;99.90
21207;DHT22;10761;48.532;8.026;2024-02-21T05:34:24;5.10;99.90
21207;DHT22;10761;48.532;8.026;2024-02-21T05:36:49;5.00;99.90
21207;DHT22;10761;48.532;8.026;2024-02-21T05:39:15;5.10;99.90
21207;DHT22;10761;48.532;8.026;2024-02-21T05:41:42;5.20;99.90
21207;DHT22;10761;48.532;8.026;2024-02-21T05:44:07;5.40;99.90
21207;DHT22;10761;48.532;8.026;2024-02-21T05:46:33;5.50;99.90
21207;DHT22;10761;48.532;8.026;2024-02-21T05:48:58;5.50;99.90
21207;DHT22;10761;48.532;8.026;2024-02-21T05:51:24;5.60;91.80
21207;DHT22;10761;48.532;8.026;2024-02-21T05:53:49;5.60;75.60
21207;DHT22;10761;48.532;8.026;2024-02-21T05:56:15;5.70;68.40
21207;DHT22;10761;48.532;8.026;2024-02-21T05:58:42;5.70;46.30
21207;DHT22;10761;48.532;8.026;2024-02-21T06:01:08;5.70;28.80
21207;DHT22;10761;48.532;8.026;2024-02-21T06:03:34;5.80;22.90
21207;DHT22;10761;48.532;8.026;2024-02-21T06:06:00;5.70;20.70
21207;DHT22;10761;48.532;8.026;2024-02-21T06:08:26;5.80;1.00
21207;DHT22;10761;48.532;8.026;2024-02-21T06:10:52;5.80;1.00
21207;DHT22;10761;48.532;8.026;2024-02-21T06:13:20;5.80;1.00
21207;DHT22;10761;48.532;8.026;2024-02-21T06:15:47;5.80;1.00
21207;DHT22;10761;48.532;8.026;2024-02-21T06:18:12;5.70;1.00
21207;DHT22;10761;48.532;8.026;2024-02-21T06:20:38;5.80;1.00
21207;DHT22;10761;48.532;8.026;2024-02-21T06:23:06;5.80;1.00
21207;DHT22;10761;48.532;8.026;2024-02-21T06:25:31;5.80;1.00
21207;DHT22;10761;48.532;8.026;2024-02-21T06:27:57;5.80;13.20
21207;DHT22;10761;48.532;8.026;2024-02-21T06:30:22;5.80;8.70
21207;DHT22;10761;48.532;8.026;2024-02-21T06:32:48;5.80;1.00
21207;DHT22;10761;48.532;8.026;2024-02-21T06:35:14;5.80;42.70
21207;DHT22;10761;48.532;8.026;2024-02-21T06:37:39;5.70;51.30
21207;DHT22;10761;48.532;8.026;2024-02-21T06:40:05;5.70;54.70
21207;DHT22;10761;48.532;8.026;2024-02-21T06:42:31;5.70;42.70
21207;DHT22;10761;48.532;8.026;2024-02-21T06:44:57;5.70;63.60
21207;DHT22;10761;48.532;8.026;2024-02-21T06:47:22;5.70;38.70
21207;DHT22;10761;48.532;8.026;2024-02-21T06:49:49;5.80;36.10
21207;DHT22;10761;48.532;8.026;2024-02-21T06:52:17;5.90;20.10
21207;DHT22;10761;48.532;8.026;2024-02-21T06:54:48;5.90;1.00
21207;DHT22;10761;48.532;8.026;2024-02-21T06:57:14;5.90;1.00
21207;DHT22;10761;48.532;8.026;2024-02-21T06:59:41;6.00;1.00
21207;DHT22;10761;48.532;8.026;2024-02-21T07:02:07;6.10;1.00
21207;DHT22;10761;48.532;8.026;2024-02-21T07:04:33;6.20;1.00
21207;DHT22;10761;48.532;8.026;2024-02-21T07:06:59;6.30;1.00
21207;DHT22;10761;48.532;8.026;2024-02-21T07:09:24;6.40;1.00
21207;DHT22;10761;48.532;8.026;2024-02-21T07:11:50;6.40;1.00
21207;DHT22;10761;48.532;8.026;2024-02-21T07:14:15;6.50;1.00
21207;DHT22;10761;48.532;8.026;2024-02-21T07:16:41;6.50;1.00
21207;DHT22;10761;48.532;8.026;2024-02-21T07:19:07;6.50;1.00
21207;DHT22;10761;48.532;8.026;2024-02-21T07:21:32;6.60;1.00
21207;DHT22;10761;48.532;8.026;2024-02-21T07:23:59;6.60;1.00
21207;DHT22;10761;48.532;8.026;2024-02-21T07:26:25;6.70;1.00
21207;DHT22;10761;48.532;8.026;2024-02-21T07:28:50;6.70;1.00
21207;DHT22;10761;48.532;8.026;2024-02-21T07:31:16;6.80;1.00
21207;DHT22;10761;48.532;8.026;2024-02-21T07:33:41;6.90;1.00
21207;DHT22;10761;48.532;8.026;2024-02-21T07:36:09;7.00;1.00
21207;DHT22;10761;48.532;8.026;2024-02-21T07:38:35;7.00;1.00
21207;DHT22;10761;48.532;8.026;2024-02-21T07:41:01;7.10;1.00
21207;DHT22;10761;48.532;8.026;2024-02-21T07:43:26;7.20;1.00
21207;DHT22;10761;48.532;8.026;2024-02-21T07:45:52;7.20;1.00
21207;DHT22;10761;48.532;8.026;2024-02-21T07:48:21;7.30;1.00
21207;DHT22;10761;48.532;8.026;2024-02-21T07:50:50;7.50;1.00
21207;DHT22;10761;48.532;8.026;2024-02-21T07:53:16;7.50;1.00
21207;DHT22;10761;48.532;8.026;2024-02-21T07:55:42;7.60;1.00
21207;DHT22;10761;48.532;8.026;2024-02-21T07:58:07;7.70;99.90
21207;DHT22;10761;48.532;8.026;2024-02-21T08:00:33;7.80;1.00
21207;DHT22;10761;48.532;8.026;2024-02-21T08:02:59;7.90;82.10
21207;DHT22;10761;48.532;8.026;2024-02-21T08:05:24;8.00;1.00
21207;DHT22;10761;48.532;8.026;2024-02-21T08:07:50;8.20;1.00
21207;DHT22;10761;48.532;8.026;2024-02-21T08:10:16;8.30;1.00
21207;DHT22;10761;48.532;8.026;2024-02-21T08:12:41;8.40;1.00
21207;DHT22;10761;48.532;8.026;2024-02-21T08:15:08;8.50;99.90
21207;DHT22;10761;48.532;8.026;2024-02-21T08:17:36;8.60;99.90
21207;DHT22;10761;48.532;8.026;2024-02-21T08:20:02;8.70;1.00
21207;DHT22;10761;48.532;8.026;2024-02-21T08:22:28;8.70;1.00
21207;DHT22;10761;48.532;8.026;2024-02-21T08:24:54;8.80;8.30
21207;DHT22;10761;48.532;8.026;2024-02-21T08:27:19;8.80;1.00
21207;DHT22;10761;48.532;8.026;2024-02-21T08:29:45;9.00;1.00
21207;DHT22;10761;48.532;8.026;2024-02-21T08:32:10;9.00;1.00
21207;DHT22;10761;48.532;8.026;2024-02-21T08:34:36;9.20;99.90
21207;DHT22;10761;48.532;8.026;2024-02-21T08:37:02;9.30;99.90
21207;DHT22;10761;48.532;8.026;2024-02-21T08:39:27;9.40;1.00
21207;DHT22;10761;48.532;8.026;2024-02-21T08:41:55;9.50;99.90
21207;DHT22;10761;48.532;8.026;2024-02-21T08:44:23;9.60;50.80
21207;DHT22;10761;48.532;8.026;2024-02-21T08:46:49;9.60;99.90
21207;DHT22;10761;48.532;8.026;2024-02-21T08:49:15;9.60;1.00
21207;DHT22;10761;48.532;8.026;2024-02-21T08:51:41;9.50;99.90
21207;DHT22;10761;48.532;8.026;2024-02-21T08:54:06;9.60;27.50
21207;DHT22;10761;48.532;8.026;2024-02-21T08:56:32;9.60;99.90
21207;DHT22;10761;48.532;8.026;2024-02-21T08:58:58;9.60;1.00
21207;DHT22;10761;48.532;8.026;2024-02-21T09:01:23;9.70;1.00
21207;DHT22;10761;48.532;8.026;2024-02-21T09:03:49;9.80;1.00
21207;DHT22;10761;48.532;8.026;2024-02-21T09:06:19;9.80;99.90
21207;DHT22;10761;48.532;8.026;2024-02-21T09:08:45;9.90;1.00
21207;DHT22;10761;48.532;8.026;2024-02-21T09:11:11;9.90;1.00
21207;DHT22;10761;48.532;8.026;2024-02-21T09:13:36;10.00;1.00
21207;DHT22;10761;48.532;8.026;2024-02-21T09:16:02;10.20;1.00
21207;DHT22;10761;48.532;8.026;2024-02-21T09:18:29;10.20;19.60
21207;DHT22;10761;48.532;8.026;2024-02-21T09:20:54;10.20;1.00
21207;DHT22;10761;48.532;8.026;2024-02-21T09:23:20;10.30;99.90
21207;DHT22;10761;48.532;8.026;2024-02-21T09:25:46;10.50;26.30
21207;DHT22;10761;48.532;8.026;2024-02-21T09:28:11;10.80;1.00
21207;DHT22;10761;48.532;8.026;2024-02-21T09:30:38;11.00;1.00
21207;DHT22;10761;48.532;8.026;2024-02-21T09:33:04;11.30;1.00
21207;DHT22;10761;48.532;8.026;2024-02-21T09:35:30;11.40;99.90
21207;DHT22;10761;48.532;8.026;2024-02-21T09:37:56;11.70;99.90
21207;DHT22;10761;48.532;8.026;2024-02-21T09:40:22;12.00;1.00
21207;DHT22;10761;48.532;8.026;2024-02-21T09:42:48;12.00;1.00
21207;DHT22;10761;48.532;8.026;2024-02-21T09:45:20;12.10;1.00
21207;DHT22;10761;48.532;8.026;2024-02-21T09:48:15;12.00;99.90
21207;DHT22;10761;48.532;8.026;2024-02-21T09:50:45;11.80;99.90
21207;DHT22;10761;48.532;8.026;2024-02-21T09:53:13;11.70;1.00
21207;DHT22;10761;48.532;8.026;2024-02-21T09:55:43;11.70;1.00
21207;DHT22;10761;48.532;8.026;2024-02-21T09:58:09;11.80;99.90
21207;DHT22;10761;48.532;8.026;2024-02-21T10:00:38;11.70;99.90
21207;DHT22;10761;48.532;8.026;2024-02-21T10:03:04;12.00;99.90
21207;DHT22;10761;48.532;8.026;2024-02-21T10:05:34;12.00;1.00
21207;DHT22;10761;48.532;8.026;2024-02-21T10:08:01;12.10;1.00
21207;DHT22;10761;48.532;8.026;2024-02-21T10:10:26;12.10;1.00
21207;DHT22;10761;48.532;8.026;2024-02-21T10:12:53;12.00;1.00
21207;DHT22;10761;48.532;8.026;2024-02-21T10:15:24;12.10;1.00
21207;DHT22;10761;48.532;8.026;2024-02-21T10:18:00;11.80;1.00
21207;DHT22;10761;48.532;8.026;2024-02-21T10:20:26;11.60;1.00
21207;DHT22;10761;48.532;8.026;2024-02-21T10:25:28;11.70;1.00
21207;DHT22;10761;48.532;8.026;2024-02-21T10:27:56;11.90;1.00
21207;DHT22;10761;48.532;8.026;2024-02-21T10:30:22;12.00;1.00
21207;DHT22;10761;48.532;8.026;2024-02-21T10:32:51;12.00;1.00
21207;DHT22;10761;48.532;8.026;2024-02-21T10:35:31;11.90;1.00
21207;DHT22;10761;48.532;8.026;2024-02-21T10:37:57;11.50;1.00
21207;DHT22;10761;48.532;8.026;2024-02-21T10:40:28;11.50;1.00
21207;DHT22;10761;48.532;8.026;2024-02-21T10:42:59;11.60;1.00
21207;DHT22;10761;48.532;8.026;2024-02-21T10:45:32;11.80;1.00
21207;DHT22;10761;48.532;8.026;2024-02-21T10:48:11;11.90;1.00
21207;DHT22;10761;48.532;8.026;2024-02-21T10:50:55;12.20;1.00
21207;DHT22;10761;48.532;8.026;2024-02-21T10:56:26;12.40;1.00
21207;DHT22;10761;48.532;8.026;2024-02-21T10:58:53;12.30;1.00
21207;DHT22;10761;48.532;8.026;2024-02-21T11:01:21;12.40;1.00
21207;DHT22;10761;48.532;8.026;2024-02-21T11:03:51;12.50;1.00
21207;DHT22;10761;48.532;8.026;2024-02-21T11:06:18;12.60;1.00
21207;DHT22;10761;48.532;8.026;2024-02-21T11:08:44;12.60;1.00
21207;DHT22;10761;48.532;8.026;2024-02-21T11:11:12;12.30;1.00
21207;DHT22;10761;48.532;8.026;2024-02-21T11:13:42;12.20;1.00
21207;DHT22;10761;48.532;8.026;2024-02-21T11:16:09;12.00;1.00
21207;DHT22;10761;48.532;8.026;2024-02-21T11:18:37;11.90;1.00
21207;DHT22;10761;48.532;8.026;2024-02-21T11:21:03;12.00;1.00
21207;DHT22;10761;48.532;8.026;2024-02-21T11:23:30;12.00;1.00
21207;DHT22;10761;48.532;8.026;2024-02-21T11:26:17;11.80;1.00
21207;DHT22;10761;48.532;8.026;2024-02-21T11:28:44;11.80;1.00
21207;DHT22;10761;48.532;8.026;2024-02-21T11:31:14;11.80;1.00
21207;DHT22;10761;48.532;8.026;2024-02-21T11:33:43;11.90;1.00
21207;DHT22;10761;48.532;8.026;2024-02-21T11:36:09;12.00;1.00
21207;DHT22;10761;48.532;8.026;2024-02-21T11:38:35;12.00;1.00
21207;DHT22;10761;48.532;8.026;2024-02-21T11:41:01;11.90;1.00
21207;DHT22;10761;48.532;8.026;2024-02-21T11:43:27;11.80;1.00
21207;DHT22;10761;48.532;8.026;2024-02-21T11:46:00;11.70;1.00
21207;DHT22;10761;48.532;8.026;2024-02-21T11:48:26;11.70;1.00
21207;DHT22;10761;48.532;8.026;2024-02-21T11:50:53;11.60;1.00
21207;DHT22;10761;48.532;8.026;2024-02-21T11:53:20;11.70;1.00
21207;DHT22;10761;48.532;8.026;2024-02-21T11:55:46;11.70;1.00
21207;DHT22;10761;48.532;8.026;2024-02-21T11:58:12;11.90;1.00
21207;DHT22;10761;48.532;8.026;2024-02-21T12:00:37;11.90;1.00
21207;DHT22;10761;48.532;8.026;2024-02-21T12:03:04;11.80;1.00
21207;DHT22;10761;48.532;8.026;2024-02-21T12:05:31;11.80;55.00
21207;DHT22;10761;48.532;8.026;2024-02-21T12:07:57;11.90;99.90
21207;DHT22;10761;48.532;8.026;2024-02-21T12:10:23;11.80;99.90
21207;DHT22;10761;48.532;8.026;2024-02-21T12:12:51;11.80;49.90
21207;DHT22;10761;48.532;8.026;2024-02-21T12:15:18;11.70;99.90
21207;DHT22;10761;48.532;8.026;2024-02-21T12:17:44;11.90;1.00
21207;DHT22;10761;48.532;8.026;2024-02-21T12:20:10;12.00;1.00
21207;DHT22;10761;48.532;8.026;2024-02-21T12:22:41;12.00;1.00
21207;DHT22;10761;48.532;8.026;2024-02-21T12:25:20;11.90;1.00
21207;DHT22;10761;48.532;8.026;2024-02-21T12:27:52;11.80;1.00
21207;DHT22;10761;48.532;8.026;2024-02-21T12:30:18;11.90;1.00
21207;DHT22;10761;48.532;8.026;2024-02-21T12:32:46;11.90;1.00
21207;DHT22;10761;48.532;8.026;2024-02-21T12:35:11;12.00;1.00
21207;DHT22;10761;48.532;8.026;2024-02-21T12:37:37;12.10;1.00
21207;DHT22;10761;48.532;8.026;2024-02-21T12:40:06;12.20;1.00
21207;DHT22;10761;48.532;8.026;2024-02-21T12:42:33;12.20;1.00
21207;DHT22;10761;48.532;8.026;2024-02-21T12:44:59;12.20;1.00
21207;DHT22;10761;48.532;8.026;2024-02-21T12:47:25;12.30;1.00
21207;DHT22;10761;48.532;8.026;2024-02-21T12:49:52;12.50;1.00
21207;DHT22;10761;48.532;8.026;2024-02-21T12:52:18;12.50;1.00
21207;DHT22;10761;48.532;8.026;2024-02-21T12:54:44;12.30;1.00
21207;DHT22;10761;48.532;8.026;2024-02-21T12:57:09;12.10;1.00
21207;DHT22;10761;48.532;8.026;2024-02-21T12:59:35;12.00;1.00
21207;DHT22;10761;48.532;8.026;2024-02-21T13:02:01;12.00;1.00
21207;DHT22;10761;48.532;8.026;2024-02-21T13:04:26;12.10;1.00
21207;DHT22;10761;48.532;8.026;2024-02-21T13:06:52;12.20;1.00
21207;DHT22;10761;48.532;8.026;2024-02-21T13:09:17;12.20;1.00
21207;DHT22;10761;48.532;8.026;2024-02-21T13:11:43;12.30;1.00
21207;DHT22;10761;48.532;8.026;2024-02-21T13:14:11;12.30;1.00
21207;DHT22;10761;48.532;8.026;2024-02-21T13:16:37;12.40;1.00
21207;DHT22;10761;48.532;8.026;2024-02-21T13:19:07;12.50;1.00
21207;DHT22;10761;48.532;8.026;2024-02-21T13:21:36;12.50;1.00
21207;DHT22;10761;48.532;8.026;2024-02-21T13:24:01;12.40;1.00
21207;DHT22;10761;48.532;8.026;2024-02-21T13:26:27;12.30;1.00
21207;DHT22;10761;48.532;8.026;2024-02-21T13:28:53;12.10;1.00
21207;DHT22;10761;48.532;8.026;2024-02-21T13:31:19;12.10;1.00
21207;DHT22;10761;48.532;8.026;2024-02-21T13:33:45;12.20;1.00
21207;DHT22;10761;48.532;8.026;2024-02-21T13:36:11;12.40;1.00
21207;DHT22;10761;48.532;8.026;2024-02-21T13:38:37;12.50;1.00
21207;DHT22;10761;48.532;8.026;2024-02-21T13:41:06;12.40;1.00
21207;DHT22;10761;48.532;8.026;2024-02-21T13:43:32;12.30;1.00
21207;DHT22;10761;48.532;8.026;2024-02-21T13:46:00;12.20;1.00
21207;DHT22;10761;48.532;8.026;2024-02-21T13:48:26;12.20;1.00
21207;DHT22;10761;48.532;8.026;2024-02-21T13:50:55;12.20;1.00
21207;DHT22;10761;48.532;8.026;2024-02-21T13:53:21;12.20;1.00
21207;DHT22;10761;48.532;8.026;2024-02-21T13:55:48;12.40;1.00
21207;DHT22;10761;48.532;8.026;2024-02-21T13:58:14;12.40;1.00
21207;DHT22;10761;48.532;8.026;2024-02-21T14:00:40;12.50;1.00
21207;DHT22;10761;48.532;8.026;2024-02-21T14:03:06;12.50;1.00
21207;DHT22;10761;48.532;8.026;2024-02-21T14:05:31;12.30;1.00
21207;DHT22;10761;48.532;8.026;2024-02-21T14:07:57;12.30;1.00
21207;DHT22;10761;48.532;8.026;2024-02-21T14:10:23;12.40;1.00
21207;DHT22;10761;48.532;8.026;2024-02-21T14:12:49;12.40;1.00
21207;DHT22;10761;48.532;8.026;2024-02-21T14:15:15;12.50;1.00
21207;DHT22;10761;48.532;8.026;2024-02-21T14:17:42;12.40;1.00
21207;DHT22;10761;48.532;8.026;2024-02-21T14:20:07;12.60;1.00
21207;DHT22;10761;48.532;8.026;2024-02-21T14:22:33;12.60;1.00
21207;DHT22;10761;48.532;8.026;2024-02-21T14:25:00;12.70;1.00
21207;DHT22;10761;48.532;8.026;2024-02-21T14:27:25;12.70;1.00
21207;DHT22;10761;48.532;8.026;2024-02-21T14:29:51;12.70;1.00
21207;DHT22;10761;48.532;8.026;2024-02-21T14:32:17;12.80;1.00
21207;DHT22;10761;48.532;8.026;2024-02-21T14:34:42;12.80;1.00
21207;DHT22;10761;48.532;8.026;2024-02-21T14:37:08;12.80;1.00
21207;DHT22;10761;48.532;8.026;2024-02-21T14:39:33;12.80;1.00
21207;DHT22;10761;48.532;8.026;2024-02-21T14:42:01;12.90;1.00
21207;DHT22;10761;48.532;8.026;2024-02-21T14:44:26;12.90;1.00
21207;DHT22;10761;48.532;8.026;2024-02-21T14:46:53;13.00;1.00
21207;DHT22;10761;48.532;8.026;2024-02-21T14:49:18;13.00;1.00
21207;DHT22;10761;48.532;8.026;2024-02-21T14:51:44;13.00;99.90
21207;DHT22;10761;48.532;8.026;2024-02-21T14:54:10;12.80;99.90
21207;DHT22;10761;48.532;8.026;2024-02-21T14:56:36;12.80;99.90
21207;DHT22;10761;48.532;8.026;2024-02-21T14:59:01;12.70;99.90
21207;DHT22;10761;48.532;8.026;2024-02-21T15:01:27;12.70;99.90
21207;DHT22;10761;48.532;8.026;2024-02-21T15:03:53;12.70;99.90
21207;DHT22;10761;48.532;8.026;2024-02-21T15:06:18;12.80;99.90
21207;DHT22;10761;48.532;8.026;2024-02-21T15:08:44;12.80;99.90
21207;DHT22;10761;48.532;8.026;2024-02-21T15:11:09;12.90;99.90
21207;DHT22;10761;48.532;8.026;2024-02-21T15:13:35;12.80;99.90
21207;DHT22;10761;48.532;8.026;2024-02-21T15:16:02;12.70;99.90
21207;DHT22;10761;48.532;8.026;2024-02-21T15:18:27;12.60;99.90
21207;DHT22;10761;48.532;8.026;2024-02-21T15:20:53;12.70;99.90
21207;DHT22;10761;48.532;8.026;2024-02-21T15:23:19;12.70;99.90
21207;DHT22;10761;48.532;8.026;2024-02-21T15:25:45;12.70;99.90
21207;DHT22;10761;48.532;8.026;2024-02-21T15:28:11;12.70;99.90
21207;DHT22;10761;48.532;8.026;2024-02-21T15:30:38;12.70;99.90
21207;DHT22;10761;48.532;8.026;2024-02-21T15:33:03;12.70;99.90
21207;DHT22;10761;48.532;8.026;2024-02-21T15:35:29;12.70;99.90
21207;DHT22;10761;48.532;8.026;2024-02-21T15:37:56;12.60;99.90
21207;DHT22;10761;48.532;8.026;2024-02-21T15:40:24;12.70;99.90
21207;DHT22;10761;48.532;8.026;2024-02-21T15:42:50;12.60;99.90
21207;DHT22;10761;48.532;8.026;2024-02-21T15:45:16;12.50;99.90
21207;DHT22;10761;48.532;8.026;2024-02-21T15:47:42;12.50;99.90
21207;DHT22;10761;48.532;8.026;2024-02-21T15:50:08;12.40;99.90